Time;durP1;ratioP1;P1;durP2;ratioP2;P2;SDS_P1;SDS_P2;PMS_P1;PMS_P2;Temp;Humidity;BMP_temperature;BMP_pressure;BME280_temperature;BME280_humidity;BME280_pressure;Samples;Min_cycle;Max_cycle;Signal;HPM_P1;HPM_P2
2021/07/25 00:01:59;;;;;;;;;;;;;;;28.33;39.10;96893.53;5030876;28;1209;-52
2021/07/25 00:04:24;;;;;;;;;;;;;;;28.28;39.11;96893.13;5011791;28;1626;-53
2021/07/25 00:06:49;;;;;;;;;;;;;;;28.34;39.19;96892.56;5030334;28;1902;-52
2021/07/25 00:09:15;;;;;;;;;;;;;;;28.33;39.07;96888.22;5030781;28;1385;-53
2021/07/25 00:11:40;;;;;;;;;;;;;;;28.43;39.03;96891.63;5030187;28;1680;-52
2021/07/25 00:14:05;;;;;;;;;;;;;;;28.47;38.66;96890.34;5029686;28;1626;-52
2021/07/25 00:16:30;;;;;;;;;;;;;;;28.47;38.65;96892.97;5031029;28;1263;-51
2021/07/25 00:18:56;;;;;;;;;;;;;;;28.44;38.72;96879.19;5029204;28;1303;-50
2021/07/25 00:21:21;;;;;;;;;;;;;;;28.41;38.85;96869.72;5029906;28;1601;-51
2021/07/25 00:23:49;;;;;;;;;;;;;;;28.24;39.07;96857.31;5030358;28;1217;-51
2021/07/25 00:26:17;;;;;;;;;;;;;;;28.37;38.94;96873.69;5029494;28;1967;-52
2021/07/25 00:28:42;;;;;;;;;;;;;;;28.38;38.69;96864.75;5028468;28;1329;-52
2021/07/25 00:31:08;;;;;;;;;;;;;;;28.27;39.12;96862.28;5030723;28;1472;-52
2021/07/25 00:33:34;;;;;;;;;;;;;;;28.24;39.32;96857.31;5010257;28;1563;-52
2021/07/25 00:35:59;;;;;;;;;;;;;;;28.31;39.08;96845.13;5013294;28;1202;-51
2021/07/25 00:38:24;;;;;;;;;;;;;;;28.43;38.86;96843.03;5029140;28;1295;-52
2021/07/25 00:40:50;;;;;;;;;;;;;;;28.46;38.96;96843.59;5029136;28;1613;-51
2021/07/25 00:43:27;;;;;;;;;;;;;;;28.35;38.94;96822.59;5018927;28;1425;-52
2021/07/25 00:45:53;;;;;;;;;;;;;;;28.20;39.39;96822.34;5031598;28;1914;-50
2021/07/25 00:48:19;;;;;;;;;;;;;;;28.32;39.16;96820.28;5029049;28;1549;-53
2021/07/25 00:50:44;;;;;;;;;;;;;;;28.27;39.10;96809.25;5016861;28;1410;-50
2021/07/25 00:53:09;;;;;;;;;;;;;;;28.32;39.00;96818.47;5030251;28;1158;-52
2021/07/25 00:55:34;;;;;;;;;;;;;;;28.36;39.12;96811.03;5010613;28;1697;-51
2021/07/25 00:58:01;;;;;;;;;;;;;;;28.33;39.01;96813.97;5009988;28;1394;-52
2021/07/25 01:00:26;;;;;;;;;;;;;;;28.30;39.15;96809.84;5024212;28;1375;-51
2021/07/25 01:03:10;;;;;;;;;;;;;;;28.23;39.26;96808.75;5024684;28;1630;-52
2021/07/25 01:05:45;;;;;;;;;;;;;;;28.07;39.77;96793.56;5028716;28;1906;-53
2021/07/25 01:08:15;;;;;;;;;;;;;;;28.29;39.22;96791.41;5020949;28;1280;-52
2021/07/25 01:10:40;;;;;;;;;;;;;;;28.37;39.15;96778.22;5009237;28;1637;-52
2021/07/25 01:13:08;;;;;;;;;;;;;;;28.32;39.21;96788.47;5011006;28;1394;-53
2021/07/25 01:15:34;;;;;;;;;;;;;;;28.37;39.08;96788.84;5029681;28;1353;-53
2021/07/25 01:17:59;;;;;;;;;;;;;;;28.31;39.36;96789.44;5018990;28;1414;-52
2021/07/25 01:20:24;;;;;;;;;;;;;;;28.25;39.27;96785.56;5029332;28;1609;-52
2021/07/25 01:22:50;;;;;;;;;;;;;;;28.22;39.16;96793.00;5028402;28;1353;-51
2021/07/25 01:25:16;;;;;;;;;;;;;;;28.19;39.55;96778.22;5029199;28;1957;-52
2021/07/25 01:27:41;;;;;;;;;;;;;;;28.18;39.50;96773.91;5026841;28;1601;-50
2021/07/25 01:30:07;;;;;;;;;;;;;;;28.25;39.48;96784.72;5026846;28;1676;-52
2021/07/25 01:32:32;;;;;;;;;;;;;;;28.22;39.18;96769.97;5026308;28;1158;-52
2021/07/25 01:34:58;;;;;;;;;;;;;;;28.26;39.22;96766.00;5009188;28;1386;-51
2021/07/25 01:37:24;;;;;;;;;;;;;;;28.28;39.31;96774.66;5027312;28;1534;-53
2021/07/25 01:39:50;;;;;;;;;;;;;;;28.27;39.13;96778.28;5025956;28;1597;-52
2021/07/25 01:42:25;;;;;;;;;;;;;;;28.21;39.45;96780.75;5018341;28;1170;-52
2021/07/25 01:44:50;;;;;;;;;;;;;;;28.23;39.25;96776.13;5027078;28;1405;-52
2021/07/25 01:47:15;;;;;;;;;;;;;;;28.28;39.29;96776.47;5019291;28;1961;-52
2021/07/25 01:49:40;;;;;;;;;;;;;;;28.14;39.50;96771.75;5026245;28;1839;-52
2021/07/25 01:52:05;;;;;;;;;;;;;;;28.08;39.38;96758.13;5028810;28;1499;-52
2021/07/25 01:54:31;;;;;;;;;;;;;;;28.17;39.30;96766.13;5028004;28;1541;-52
2021/07/25 01:56:56;;;;;;;;;;;;;;;28.25;39.37;96774.13;5028622;28;1683;-52
2021/07/25 01:59:22;;;;;;;;;;;;;;;28.28;39.09;96774.66;5029573;28;1460;-52
2021/07/25 02:01:47;;;;;;;;;;;;;;;28.34;39.12;96774.03;5029871;28;1085;-53
2021/07/25 02:04:12;;;;;;;;;;;;;;;28.21;39.44;96775.44;5026107;28;1522;-50
2021/07/25 02:06:37;;;;;;;;;;;;;;;28.31;39.12;96765.59;5028334;28;1910;-52
2021/07/25 02:09:02;;;;;;;;;;;;;;;28.18;39.41;96773.09;5026162;28;1562;-51
2021/07/25 02:11:28;;;;;;;;;;;;;;;28.08;39.90;96776.69;5027770;28;1625;-52
2021/07/25 02:13:53;;;;;;;;;;;;;;;28.11;39.87;96770.22;5026656;28;1526;-52
2021/07/25 02:16:18;;;;;;;;;;;;;;;28.17;39.49;96774.09;5028559;28;1078;-52
2021/07/25 02:18:43;;;;;;;;;;;;;;;28.03;39.71;96765.69;5026579;28;1729;-50
2021/07/25 02:21:08;;;;;;;;;;;;;;;28.16;39.60;96762.66;5027640;28;1549;-50
2021/07/25 02:23:34;;;;;;;;;;;;;;;28.14;39.46;96777.06;5027091;28;1090;-53
2021/07/25 02:25:59;;;;;;;;;;;;;;;28.10;39.57;96771.22;5027841;28;1956;-52
2021/07/25 02:28:24;;;;;;;;;;;;;;;28.29;39.17;96772.84;5027606;28;1541;-51
2021/07/25 02:30:49;;;;;;;;;;;;;;;28.30;39.04;96777.19;5026661;28;1613;-52
2021/07/25 02:33:14;;;;;;;;;;;;;;;28.15;39.75;96779.53;5028084;28;1381;-53
2021/07/25 02:35:40;;;;;;;;;;;;;;;28.16;39.61;96775.06;5029328;28;1201;-52
2021/07/25 02:38:05;;;;;;;;;;;;;;;28.05;39.69;96779.66;5027360;28;1264;-53
2021/07/25 02:40:30;;;;;;;;;;;;;;;28.08;39.64;96781.16;5027739;28;1546;-52
2021/07/25 02:42:55;;;;;;;;;;;;;;;28.22;39.12;96764.69;5027657;28;1275;-50
2021/07/25 02:45:20;;;;;;;;;;;;;;;28.11;39.56;96772.88;5032976;28;1969;-52
2021/07/25 02:47:45;;;;;;;;;;;;;;;28.22;39.28;96777.09;5030459;28;1573;-51
2021/07/25 02:50:11;;;;;;;;;;;;;;;28.16;39.69;96777.72;5032752;28;967;-52
2021/07/25 02:52:36;;;;;;;;;;;;;;;28.17;39.48;96796.13;5030214;28;983;-52
2021/07/25 02:55:02;;;;;;;;;;;;;;;28.13;39.71;96810.69;5031367;28;1813;-52
2021/07/25 02:57:27;;;;;;;;;;;;;;;28.08;39.82;96808.50;5031949;28;1517;-52
2021/07/25 02:59:53;;;;;;;;;;;;;;;28.12;39.61;96811.66;5032898;28;1061;-52
2021/07/25 03:02:18;;;;;;;;;;;;;;;28.08;39.76;96813.78;5030467;28;1657;-51
2021/07/25 03:04:46;;;;;;;;;;;;;;;28.09;39.59;96810.16;5030404;28;1553;-52
2021/07/25 03:07:11;;;;;;;;;;;;;;;28.18;39.42;96819.00;5032011;28;1907;-52
2021/07/25 03:09:36;;;;;;;;;;;;;;;28.26;39.31;96813.75;5030928;28;1405;-52
2021/07/25 03:12:02;;;;;;;;;;;;;;;28.20;39.54;96802.91;5031197;28;2257;-53
2021/07/25 03:14:27;;;;;;;;;;;;;;;28.21;39.59;96807.25;5031181;28;1356;-52
2021/07/25 03:16:52;;;;;;;;;;;;;;;28.05;39.90;96807.97;5032404;28;1201;-53
2021/07/25 03:19:17;;;;;;;;;;;;;;;28.32;39.22;96791.13;5030268;28;1715;-52
2021/07/25 03:21:43;;;;;;;;;;;;;;;28.21;39.19;96794.84;5030971;28;1389;-52
2021/07/25 03:24:08;;;;;;;;;;;;;;;28.13;39.75;96792.13;5032907;28;1161;-52
2021/07/25 03:26:33;;;;;;;;;;;;;;;28.17;39.41;96796.13;5030245;28;1965;-50
2021/07/25 03:28:58;;;;;;;;;;;;;;;28.30;39.11;96809.84;5032411;28;1264;-52
2021/07/25 03:31:23;;;;;;;;;;;;;;;28.19;39.42;96798.59;5034523;23;1747;-51
2021/07/25 03:33:49;;;;;;;;;;;;;;;28.18;39.48;96799.59;5025933;28;1526;-52
2021/07/25 03:36:14;;;;;;;;;;;;;;;28.18;39.49;96804.91;5030686;28;1189;-51
2021/07/25 03:38:39;;;;;;;;;;;;;;;28.17;39.48;96808.53;5030758;28;1398;-53
2021/07/25 03:41:05;;;;;;;;;;;;;;;28.20;39.43;96805.56;5026672;28;1692;-53
2021/07/25 03:43:30;;;;;;;;;;;;;;;28.17;39.35;96821.81;5031435;28;1193;-49
2021/07/25 03:45:56;;;;;;;;;;;;;;;28.33;39.34;96825.41;5031611;28;1914;-52
2021/07/25 03:48:21;;;;;;;;;;;;;;;28.21;39.55;96831.13;5032155;28;1256;-52
2021/07/25 03:50:46;;;;;;;;;;;;;;;28.15;39.63;96839.69;5029098;28;1569;-53
2021/07/25 03:53:11;;;;;;;;;;;;;;;28.19;39.41;96839.22;5030878;28;1276;-53
2021/07/25 03:55:37;;;;;;;;;;;;;;;28.27;39.44;96835.78;5026677;28;1668;-53
2021/07/25 03:58:02;;;;;;;;;;;;;;;28.26;39.36;96831.47;5030294;28;1525;-52
2021/07/25 04:00:27;;;;;;;;;;;;;;;28.25;39.17;96832.47;5030466;28;1268;-52
2021/07/25 04:02:52;;;;;;;;;;;;;;;28.07;39.73;96832.50;5029719;28;1641;-53
2021/07/25 04:05:18;;;;;;;;;;;;;;;28.14;39.54;96830.06;5031391;28;1898;-50
2021/07/25 04:07:43;;;;;;;;;;;;;;;27.98;39.83;96828.13;5031663;28;1225;-53
2021/07/25 04:10:08;;;;;;;;;;;;;;;28.30;39.21;96824.91;5030081;28;1526;-52
2021/07/25 04:12:33;;;;;;;;;;;;;;;28.27;39.22;96819.88;5031456;28;1300;-52
2021/07/25 04:15:00;;;;;;;;;;;;;;;28.27;39.35;96830.47;5030410;28;1318;-52
2021/07/25 04:17:25;;;;;;;;;;;;;;;28.30;39.16;96831.06;5031447;28;1383;-52
2021/07/25 04:19:50;;;;;;;;;;;;;;;28.29;39.30;96831.19;5027913;28;1606;-52
2021/07/25 04:22:16;;;;;;;;;;;;;;;28.38;39.21;96830.28;5030849;28;1193;-52
2021/07/25 04:24:41;;;;;;;;;;;;;;;28.24;39.09;96838.75;5030460;28;1363;-52
2021/07/25 04:27:06;;;;;;;;;;;;;;;28.22;39.24;96836.25;5030867;28;1906;-52
2021/07/25 04:29:31;;;;;;;;;;;;;;;28.25;39.44;96840.41;5028313;28;1534;-53
2021/07/25 04:31:57;;;;;;;;;;;;;;;28.35;39.09;96846.47;5031044;28;1090;-53
2021/07/25 04:34:24;;;;;;;;;;;;;;;28.24;39.38;96847.53;5029643;28;1493;-51
2021/07/25 04:36:49;;;;;;;;;;;;;;;28.41;38.98;96840.56;5029016;28;1618;-52
2021/07/25 04:39:15;;;;;;;;;;;;;;;28.26;38.98;96834.94;5030073;28;1165;-51
2021/07/25 04:41:41;;;;;;;;;;;;;;;28.23;39.34;96842.41;5028958;28;1561;-50
2021/07/25 04:44:13;;;;;;;;;;;;;;;28.27;39.16;96835.78;5030094;28;1529;-51
2021/07/25 04:46:40;;;;;;;;;;;;;;;28.26;39.27;96829.66;5028551;28;1969;-52
2021/07/25 04:49:07;;;;;;;;;;;;;;;28.21;39.60;96836.44;5028909;28;1709;-52
2021/07/25 04:51:33;;;;;;;;;;;;;;;28.38;38.91;96834.75;5029579;28;1314;-51
2021/07/25 04:54:02;;;;;;;;;;;;;;;28.14;39.58;96851.28;5029002;28;1745;-52
2021/07/25 04:56:27;;;;;;;;;;;;;;;28.27;39.54;96854.34;5027614;28;1609;-52
2021/07/25 04:58:58;;;;;;;;;;;;;;;28.16;39.73;96852.78;5030045;28;1362;-52
2021/07/25 05:01:31;;;;;;;;;;;;;;;28.09;39.66;96839.31;5026178;28;1706;-50
2021/07/25 05:03:56;;;;;;;;;;;;;;;28.08;39.64;96844.78;5029040;28;1534;-52
2021/07/25 05:06:22;;;;;;;;;;;;;;;28.14;39.63;96846.81;5027727;28;1980;-52
2021/07/25 05:08:47;;;;;;;;;;;;;;;28.25;39.38;96848.38;5028950;28;1220;-52
2021/07/25 05:11:31;;;;;;;;;;;;;;;28.10;39.54;96846.28;5029108;28;1689;-52
2021/07/25 05:13:56;;;;;;;;;;;;;;;28.22;39.35;96848.69;5027597;28;1550;-52
2021/07/25 05:16:48;;;;;;;;;;;;;;;28.19;39.18;96851.63;5029257;28;1217;-51
2021/07/25 05:19:16;;;;;;;;;;;;;;;28.19;39.32;96843.69;5026042;28;1194;-53
2021/07/25 05:21:42;;;;;;;;;;;;;;;28.22;39.34;96854.00;5027929;28;1895;-52
2021/07/25 05:24:08;;;;;;;;;;;;;;;28.23;39.25;96863.59;5029426;28;1638;-52
2021/07/25 05:26:33;;;;;;;;;;;;;;;28.34;39.14;96879.28;5027601;28;1914;-52
2021/07/25 05:28:58;;;;;;;;;;;;;;;28.26;39.20;96880.03;5028908;28;1176;-50
2021/07/25 05:31:28;;;;;;;;;;;;;;;28.27;39.52;96883.50;5028544;28;1335;-50
2021/07/25 05:33:53;;;;;;;;;;;;;;;28.28;39.18;96894.00;5029236;28;1637;-52
2021/07/25 05:36:18;;;;;;;;;;;;;;;28.23;39.40;96882.16;5030774;28;1362;-51
2021/07/25 05:38:43;;;;;;;;;;;;;;;28.16;39.44;96881.13;5030052;28;1185;-50
2021/07/25 05:41:09;;;;;;;;;;;;;;;28.30;39.17;96868.16;5028293;28;1589;-52
2021/07/25 05:43:34;;;;;;;;;;;;;;;28.26;39.40;96876.53;5030004;28;1272;-50
2021/07/25 05:45:59;;;;;;;;;;;;;;;28.21;39.12;96868.25;5027900;28;1969;-52
2021/07/25 05:48:24;;;;;;;;;;;;;;;28.24;39.56;96882.00;5028346;28;1562;-52
2021/07/25 05:50:50;;;;;;;;;;;;;;;28.23;39.28;96898.06;5027408;28;1434;-52
2021/07/25 05:53:15;;;;;;;;;;;;;;;28.19;39.41;96899.34;5029681;28;1142;-52
2021/07/25 05:55:40;;;;;;;;;;;;;;;28.14;39.66;96907.78;5027814;28;1594;-52
2021/07/25 05:58:05;;;;;;;;;;;;;;;28.27;39.30;96907.38;5030393;28;1137;-50
2021/07/25 06:00:31;;;;;;;;;;;;;;;28.10;39.82;96925.78;5029662;28;1441;-52
2021/07/25 06:02:56;;;;;;;;;;;;;;;28.28;39.08;96927.59;5029713;28;1116;-52
2021/07/25 06:05:22;;;;;;;;;;;;;;;28.22;39.38;96928.22;5026653;28;1641;-51
2021/07/25 06:07:47;;;;;;;;;;;;;;;28.20;39.79;96927.53;5029531;28;1956;-50
2021/07/25 06:10:12;;;;;;;;;;;;;;;28.25;39.45;96933.22;5028522;28;1673;-50
2021/07/25 06:12:38;;;;;;;;;;;;;;;28.26;39.56;96929.56;5029278;28;1339;-52
2021/07/25 06:15:03;;;;;;;;;;;;;;;28.17;39.55;96930.50;5029964;28;1252;-52
2021/07/25 06:17:29;;;;;;;;;;;;;;;28.42;39.06;96929.75;5029224;28;1165;-53
2021/07/25 06:19:54;;;;;;;;;;;;;;;28.24;39.60;96920.94;5031309;28;1664;-51
2021/07/25 06:22:19;;;;;;;;;;;;;;;28.24;39.36;96910.34;5033150;28;1271;-52
2021/07/25 06:24:44;;;;;;;;;;;;;;;28.16;39.67;96910.28;5032396;28;1641;-52
2021/07/25 06:27:09;;;;;;;;;;;;;;;28.19;39.42;96902.00;5030373;28;1906;-53
2021/07/25 06:29:35;;;;;;;;;;;;;;;28.16;39.30;96902.31;5032597;28;1367;-52
2021/07/25 06:32:00;;;;;;;;;;;;;;;28.16;39.64;96894.38;5032343;28;1201;-51
2021/07/25 06:34:25;;;;;;;;;;;;;;;28.14;39.82;96889.22;5031135;28;1553;-50
2021/07/25 06:36:50;;;;;;;;;;;;;;;28.09;39.73;96887.03;5033050;28;1201;-50
2021/07/25 06:39:15;;;;;;;;;;;;;;;28.28;39.26;96885.16;5031918;28;1291;-50
2021/07/25 06:41:41;;;;;;;;;;;;;;;28.20;39.45;96888.63;5032686;28;1641;-51
2021/07/25 06:44:06;;;;;;;;;;;;;;;28.19;39.45;96891.41;5032327;28;1327;-51
2021/07/25 06:46:32;;;;;;;;;;;;;;;28.29;39.29;96892.16;5033172;28;1949;-52
2021/07/25 06:48:58;;;;;;;;;;;;;;;28.37;39.13;96900.22;5029702;28;1636;-50
2021/07/25 06:51:23;;;;;;;;;;;;;;;28.29;39.19;96895.69;5031817;28;1362;-51
2021/07/25 06:53:48;;;;;;;;;;;;;;;28.20;39.52;96888.63;5032802;28;1308;-52
2021/07/25 06:56:13;;;;;;;;;;;;;;;28.25;39.55;96886.31;5031443;28;1637;-51
2021/07/25 06:58:39;;;;;;;;;;;;;;;28.20;39.57;96882.47;5030627;28;1421;-49
2021/07/25 07:01:04;;;;;;;;;;;;;;;28.33;39.14;96896.19;5033089;28;1351;-52
2021/07/25 07:03:30;;;;;;;;;;;;;;;28.33;39.06;96886.41;5030529;28;1622;-52
2021/07/25 07:05:55;;;;;;;;;;;;;;;28.20;39.36;96872.72;5032110;28;1993;-52
2021/07/25 07:08:20;;;;;;;;;;;;;;;28.14;39.71;96883.09;5032885;28;1315;-52
2021/07/25 07:10:46;;;;;;;;;;;;;;;28.09;39.66;96880.88;5031505;28;1677;-53
2021/07/25 07:13:12;;;;;;;;;;;;;;;28.25;39.55;96901.41;5032717;28;1142;-51
2021/07/25 07:15:38;;;;;;;;;;;;;;;28.16;39.47;96887.25;5030789;28;1541;-49
2021/07/25 07:18:03;;;;;;;;;;;;;;;28.30;39.23;96873.47;5032805;28;1720;-52
2021/07/25 07:20:28;;;;;;;;;;;;;;;28.11;39.79;96876.25;5029735;28;1566;-50
2021/07/25 07:22:54;;;;;;;;;;;;;;;28.38;39.14;96890.44;5033943;28;1094;-52
2021/07/25 07:25:19;;;;;;;;;;;;;;;28.18;39.59;96882.63;5030927;28;1546;-52
2021/07/25 07:27:45;;;;;;;;;;;;;;;28.46;38.78;96879.88;5032558;28;1898;-51
2021/07/25 07:30:10;;;;;;;;;;;;;;;28.21;39.47;96882.31;5028605;28;1208;-52
2021/07/25 07:32:35;;;;;;;;;;;;;;;28.17;39.44;96883.59;5028623;28;1645;-52
2021/07/25 07:35:00;;;;;;;;;;;;;;;28.13;39.70;96886.72;5029331;28;1712;-52
2021/07/25 07:37:26;;;;;;;;;;;;;;;28.14;39.55;96880.44;5030163;28;1212;-52
2021/07/25 07:39:51;;;;;;;;;;;;;;;28.16;39.43;96875.81;5028885;28;1530;-52
2021/07/25 07:42:16;;;;;;;;;;;;;;;28.21;39.58;96878.84;5030914;28;1296;-52
2021/07/25 07:44:42;;;;;;;;;;;;;;;28.27;39.15;96879.03;5030311;28;1299;-50
2021/07/25 07:47:07;;;;;;;;;;;;;;;28.34;38.91;96880.13;5031013;28;1898;-52
2021/07/25 07:49:32;;;;;;;;;;;;;;;28.26;39.36;96887.16;5028874;28;1586;-52
2021/07/25 07:51:57;;;;;;;;;;;;;;;28.19;39.39;96883.44;5027763;28;1561;-51
2021/07/25 07:54:22;;;;;;;;;;;;;;;28.19;39.52;96886.09;5029747;28;1189;-51
2021/07/25 07:56:48;;;;;;;;;;;;;;;28.22;39.44;96896.41;5029334;28;1534;-52
2021/07/25 07:59:13;;;;;;;;;;;;;;;28.25;39.59;96891.63;5030213;28;1397;-52
2021/07/25 08:01:38;;;;;;;;;;;;;;;28.16;39.53;96886.41;5029671;28;1468;-52
2021/07/25 08:04:03;;;;;;;;;;;;;;;28.26;39.43;96881.84;5028853;28;1598;-50
2021/07/25 08:06:28;;;;;;;;;;;;;;;28.19;39.64;96881.63;5028973;28;1906;-52
2021/07/25 08:08:54;;;;;;;;;;;;;;;28.29;39.21;96869.16;5029898;28;1240;-51
2021/07/25 08:11:19;;;;;;;;;;;;;;;28.24;39.47;96865.28;5027906;28;1557;-52
2021/07/25 08:13:44;;;;;;;;;;;;;;;28.27;39.37;96863.13;5028917;28;1442;-50
2021/07/25 08:16:09;;;;;;;;;;;;;;;28.27;39.36;96864.94;5028490;28;1641;-50
2021/07/25 08:18:35;;;;;;;;;;;;;;;28.32;39.41;96865.34;5028105;28;1657;-52
2021/07/25 08:21:00;;;;;;;;;;;;;;;28.20;39.28;96871.84;5029023;28;1320;-53
2021/07/25 08:23:25;;;;;;;;;;;;;;;28.27;39.18;96873.72;5029855;28;1166;-52
2021/07/25 08:25:50;;;;;;;;;;;;;;;28.00;40.15;96881.81;5027663;28;1955;-51
2021/07/25 08:28:15;;;;;;;;;;;;;;;28.26;39.45;96887.16;5029246;28;1146;-52
2021/07/25 08:30:41;;;;;;;;;;;;;;;28.44;39.33;96880.03;4990248;28;1069134;-51
2021/07/25 08:33:06;;;;;;;;;;;;;;;28.64;39.13;96886.78;5030073;28;1338;-51
2021/07/25 08:35:31;;;;;;;;;;;;;;;28.53;39.40;96878.28;5028450;28;1645;-52
2021/07/25 08:37:56;;;;;;;;;;;;;;;28.72;39.14;96877.22;5030985;28;1078;-52
2021/07/25 08:40:22;;;;;;;;;;;;;;;28.73;38.97;96876.22;5029174;28;1590;-51
2021/07/25 08:42:56;;;;;;;;;;;;;;;28.79;38.66;96878.25;5029390;28;1146;-51
2021/07/25 08:45:21;;;;;;;;;;;;;;;28.80;38.91;96875.44;5027253;28;1355;-53
2021/07/25 08:47:47;;;;;;;;;;;;;;;28.82;38.67;96870.78;5028932;28;1910;-50
2021/07/25 08:50:16;;;;;;;;;;;;;;;28.81;38.90;96873.63;5029121;28;1621;-50
2021/07/25 08:52:45;;;;;;;;;;;;;;;28.77;39.22;96870.47;5030122;28;1129;-51
2021/07/25 08:55:14;;;;;;;;;;;;;;;28.72;39.50;96875.41;5027081;28;1680;-52
2021/07/25 08:57:40;;;;;;;;;;;;;;;28.84;39.25;96875.97;5026609;28;1725;-52
2021/07/25 09:00:07;;;;;;;;;;;;;;;28.88;39.30;96882.63;5031010;28;1284;-52
2021/07/25 09:02:32;;;;;;;;;;;;;;;28.84;39.50;96884.78;5027928;28;1095;-51
2021/07/25 09:04:57;;;;;;;;;;;;;;;28.86;39.46;96890.75;5028565;28;1446;-52
2021/07/25 09:07:24;;;;;;;;;;;;;;;28.90;39.29;96894.75;5031015;28;1914;-52
2021/07/25 09:09:50;;;;;;;;;;;;;;;28.94;39.38;96903.25;5026855;28;1585;-52
2021/07/25 09:12:16;;;;;;;;;;;;;;;28.96;39.26;96911.06;5029464;28;1062;-53
2021/07/25 09:14:41;;;;;;;;;;;;;;;28.98;39.34;96915.22;5029759;28;2057;-52
2021/07/25 09:17:07;;;;;;;;;;;;;;;28.94;39.31;96924.50;5030681;28;1054;-52
2021/07/25 09:19:32;;;;;;;;;;;;;;;28.94;39.45;96932.44;5033606;28;1264;-52
2021/07/25 09:21:57;;;;;;;;;;;;;;;28.96;39.28;96925.16;5032263;28;1507;-51
2021/07/25 09:24:29;;;;;;;;;;;;;;;28.95;39.44;96931.47;5035366;28;1248;-51
2021/07/25 09:26:56;;;;;;;;;;;;;;;29.06;39.33;96941.78;5031531;28;1967;-52
2021/07/25 09:29:22;;;;;;;;;;;;;;;29.01;39.30;96944.13;5030458;28;1545;-52
2021/07/25 09:34:34;;;;;;;;;;;;;;;29.04;39.12;96966.84;5024134;28;1758;-51
2021/07/25 09:37:05;;;;;;;;;;;;;;;28.99;39.50;96956.69;5024715;28;1546;-52
2021/07/25 09:40:00;;;;;;;;;;;;;;;29.00;39.36;96954.91;5027593;28;1178;-52
2021/07/25 09:42:28;;;;;;;;;;;;;;;29.01;39.23;96957.38;5017611;28;1319;-51
2021/07/25 09:44:54;;;;;;;;;;;;;;;28.98;39.47;96955.03;5025016;28;1115;-52
2021/07/25 09:47:24;;;;;;;;;;;;;;;28.98;39.27;96952.38;5020978;28;1938;-52
2021/07/25 09:49:49;;;;;;;;;;;;;;;28.96;39.81;96951.69;5023510;28;1632;-52
2021/07/25 09:52:14;;;;;;;;;;;;;;;28.94;39.75;96950.22;5028047;28;1583;-52
2021/07/25 09:54:40;;;;;;;;;;;;;;;29.00;39.39;96934.47;5008785;28;1638;-50
2021/07/25 09:57:11;;;;;;;;;;;;;;;29.01;39.40;96933.50;5028621;28;1652;-53
2021/07/25 09:59:36;;;;;;;;;;;;;;;29.03;39.32;96926.19;5027811;28;1167;-52
2021/07/25 10:02:02;;;;;;;;;;;;;;;29.00;39.56;96931.00;5028186;28;1566;-52
2021/07/25 10:04:27;;;;;;;;;;;;;;;29.02;39.52;96936.97;5025320;28;1726;-52
2021/07/25 10:06:54;;;;;;;;;;;;;;;28.98;39.49;96933.78;5026463;28;1961;-51
2021/07/25 10:09:19;;;;;;;;;;;;;;;29.03;39.61;96931.50;5025613;28;1141;-51
2021/07/25 10:11:48;;;;;;;;;;;;;;;29.09;39.37;96930.88;5020551;28;1590;-51
2021/07/25 10:14:17;;;;;;;;;;;;;;;28.91;39.95;96941.56;5027424;28;1233;-52
2021/07/25 10:16:43;;;;;;;;;;;;;;;28.97;39.53;96940.09;5022400;28;1686;-51
2021/07/25 10:19:08;;;;;;;;;;;;;;;29.09;39.51;96925.56;5003107;28;1813;-54
2021/07/25 10:21:33;;;;;;;;;;;;;;;29.27;39.20;96909.53;4998260;28;1593;-51
2021/07/25 10:23:59;;;;;;;;;;;;;;;29.38;39.12;96905.75;5018767;28;2236;-53
2021/07/25 10:26:27;;;;;;;;;;;;;;;28.57;40.55;96904.31;4999683;28;1934;-52
2021/07/25 10:28:53;;;;;;;;;;;;;;;29.37;39.03;96902.28;5018322;28;1568;-49
2021/07/25 10:31:18;;;;;;;;;;;;;;;29.42;38.76;96902.63;5020557;28;1652;-52
2021/07/25 10:33:43;;;;;;;;;;;;;;;29.32;39.01;96890.47;5021180;28;1632;-53
2021/07/25 10:36:09;;;;;;;;;;;;;;;29.24;39.10;96877.19;5010609;28;1469;-53
2021/07/25 10:38:35;;;;;;;;;;;;;;;29.17;39.20;96872.50;5010138;28;1369;-52
2021/07/25 10:41:00;;;;;;;;;;;;;;;29.17;39.16;96877.81;5004614;28;1643;-52
2021/07/25 10:43:25;;;;;;;;;;;;;;;29.20;38.81;96868.69;5000206;28;1573;-51
2021/07/25 10:46:09;;;;;;;;;;;;;;;29.24;38.58;96862.06;5020541;28;1961;-51
2021/07/25 10:48:35;;;;;;;;;;;;;;;29.32;38.54;96850.66;5022798;28;1501;-50
2021/07/25 10:51:09;;;;;;;;;;;;;;;29.26;38.64;96856.59;5019932;28;1349;-50
2021/07/25 10:53:34;;;;;;;;;;;;;;;29.04;39.02;96850.88;5019600;28;1640;-56
2021/07/25 10:55:59;;;;;;;;;;;;;;;29.39;38.27;96855.16;4999537;28;1555;-53
2021/07/25 10:58:25;;;;;;;;;;;;;;;29.42;38.28;96851.31;4997707;28;1511;-53
2021/07/25 11:00:51;;;;;;;;;;;;;;;29.30;38.35;96844.63;5004161;28;1221;-52
2021/07/25 11:03:25;;;;;;;;;;;;;;;29.73;37.44;96840.97;5017694;28;1431;-54
2021/07/25 11:05:59;;;;;;;;;;;;;;;29.42;37.90;96841.53;5027592;28;1905;-55
2021/07/25 11:08:31;;;;;;;;;;;;;;;29.51;38.22;96857.53;4966943;28;1484;-54
2021/07/25 11:10:56;;;;;;;;;;;;;;;29.50;37.97;96861.19;5024561;28;1562;-54
2021/07/25 11:13:22;;;;;;;;;;;;;;;29.42;38.46;96864.59;5022929;28;1278;-56
2021/07/25 11:15:47;;;;;;;;;;;;;;;29.48;38.23;96858.66;5004994;28;1363;-55
2021/07/25 11:18:26;;;;;;;;;;;;;;;29.35;38.66;96860.94;5021510;28;1605;-54
2021/07/25 11:20:56;;;;;;;;;;;;;;;29.27;38.95;96866.22;5020887;28;1472;-53
2021/07/25 11:23:21;;;;;;;;;;;;;;;29.49;38.50;96860.31;5022653;28;1130;-54
2021/07/25 11:25:47;;;;;;;;;;;;;;;29.58;38.27;96848.72;5020757;28;1957;-56
2021/07/25 11:28:32;;;;;;;;;;;;;;;29.37;38.25;96840.34;5005105;28;1422;-52
2021/07/25 11:30:57;;;;;;;;;;;;;;;29.38;38.84;96847.31;5020117;28;1371;-52
2021/07/25 11:33:41;;;;;;;;;;;;;;;29.72;38.00;96849.94;5021171;28;1628;-54
2021/07/25 11:36:06;;;;;;;;;;;;;;;29.33;38.46;96839.84;5023572;28;1166;-53
2021/07/25 11:38:32;;;;;;;;;;;;;;;29.85;37.70;96828.16;5026162;28;1376;-53
2021/07/25 11:40:57;;;;;;;;;;;;;;;29.67;37.72;96823.84;5024575;28;1653;-53
2021/07/25 11:43:22;;;;;;;;;;;;;;;29.65;37.90;96828.47;5022356;28;1277;-53
2021/07/25 11:45:48;;;;;;;;;;;;;;;29.87;37.51;96831.50;5023136;28;1964;-52
2021/07/25 11:48:19;;;;;;;;;;;;;;;29.47;38.50;96822.47;5020127;28;1126;-52
2021/07/25 11:50:45;;;;;;;;;;;;;;;29.51;38.47;96821.16;5021617;28;1703;-53
2021/07/25 11:53:10;;;;;;;;;;;;;;;29.87;37.58;96824.34;5020786;28;1236;-56
2021/07/25 11:55:35;;;;;;;;;;;;;;;29.91;37.31;96824.84;5005472;28;1674;-54
2021/07/25 11:58:07;;;;;;;;;;;;;;;29.98;37.32;96833.81;5009734;28;1133;-52
2021/07/25 12:00:32;;;;;;;;;;;;;;;30.22;36.95;96828.50;5017319;28;1383;-55
2021/07/25 12:02:57;;;;;;;;;;;;;;;30.17;37.05;96825.50;5008713;28;1895;-54
2021/07/25 12:05:25;;;;;;;;;;;;;;;29.89;37.98;96832.16;5020105;28;1458;-54
2021/07/25 12:07:50;;;;;;;;;;;;;;;29.91;37.90;96833.66;5022276;28;1914;-52
2021/07/25 12:10:15;;;;;;;;;;;;;;;29.68;38.58;96816.69;5020476;28;1632;-52
2021/07/25 12:12:41;;;;;;;;;;;;;;;29.67;39.00;96813.19;5000586;28;1656;-55
2021/07/25 12:15:09;;;;;;;;;;;;;;;29.68;38.41;96812.19;5021432;28;1217;-55
2021/07/25 12:17:44;;;;;;;;;;;;;;;29.48;39.02;96811.66;5017868;28;1665;-52
2021/07/25 12:20:29;;;;;;;;;;;;;;;29.56;38.69;96812.72;5021213;28;1371;-51
2021/07/25 12:23:00;;;;;;;;;;;;;;;29.58;38.62;96811.53;5018474;28;1633;-52
2021/07/25 12:25:25;;;;;;;;;;;;;;;29.47;38.75;96804.69;5018808;28;1601;-53
2021/07/25 12:28:00;;;;;;;;;;;;;;;29.52;38.67;96806.03;5018934;28;1906;-53
2021/07/25 12:30:26;;;;;;;;;;;;;;;29.60;38.64;96804.22;5020694;28;1605;-51
2021/07/25 12:32:51;;;;;;;;;;;;;;;29.48;38.82;96803.69;5018539;28;1153;-52
2021/07/25 12:35:17;;;;;;;;;;;;;;;29.43;38.87;96810.47;5021231;28;1553;-52
2021/07/25 12:37:44;;;;;;;;;;;;;;;29.46;38.61;96808.31;5020692;28;1125;-51
2021/07/25 12:40:25;;;;;;;;;;;;;;;29.42;39.10;96812.31;5023334;28;1625;-53
2021/07/25 12:43:00;;;;;;;;;;;;;;;29.39;38.78;96811.81;5019803;28;1305;-51
2021/07/25 12:45:26;;;;;;;;;;;;;;;29.44;38.94;96814.78;5018971;28;1289;-51
2021/07/25 12:48:07;;;;;;;;;;;;;;;29.44;39.02;96818.28;5019689;28;1906;-53
2021/07/25 12:50:41;;;;;;;;;;;;;;;29.44;39.03;96822.75;5017515;28;1471;-53
2021/07/25 12:53:39;;;;;;;;;;;;;;;29.42;39.11;96819.44;5018242;28;1284;-52
2021/07/25 12:56:05;;;;;;;;;;;;;;;29.44;39.02;96817.47;4976387;28;1559;-53
2021/07/25 12:58:35;;;;;;;;;;;;;;;29.44;38.72;96812.97;5019706;28;1149;-52